Espaço - Ciências - Fenômenos Naturais
Meteógrafos Informações Meteorológicas em tempo real

Aerporto de Belo Horizonte

Histórico do Tempo
Temperatura atual: 17 graus 62 F    Umidade relativa: 88 %
Velocidade do vento: 02 nós 3 Km/h    Direção: 180 graus S
Ajuste do altímetro ..: 1019 HPA
Visibilidade: Ótima    Tempo presente: Céu Limpo

Observação

Data Hora BRTTempo°CUmidadePressãoVentoVisib.
24/05 - 07:56   Céu Limpo 17° 88% 1019 Sul/3 km/h OK
24/05 - 06:56   Céu Limpo 15° 100% 1017 Sul-sudeste/1 km/h OK
24/05 - 05:56   Céu Limpo 15° 100% 1017 Sul-sudeste/3 km/h OK
24/05 - 04:56   Céu Limpo 15° 100% 1017 Sul-sudeste/3 km/h OK
24/05 - 03:56   Céu Limpo 16° 93% 1017 Sudeste/1 km/h OK
24/05 - 02:56   Céu Limpo 16° 93% 1017 Sudeste/1 km/h OK
24/05 - 01:56   Céu Limpo 17° 88% 1018 Sul-sudeste/7 km/h OK
24/05 - 00:56   Céu Limpo 17° 88% 1018 Sul-sudeste/7 km/h OK
23/05 - 23:56   Céu Limpo 18° 82% 1018 Sudeste/5 km/h OK
23/05 - 22:56   Céu Limpo 19° 77% 1018 Sudoeste/3 km/h OK
23/05 - 21:56   Céu Limpo 19° 77% 1018 Sudoeste/3 km/h OK
23/05 - 20:56   Céu Limpo 21° 64% 1017 Sul-sudoeste/1 km/h OK
23/05 - 19:56   Céu Limpo 21° 64% 1017 Sul-sudoeste/1 km/h OK
23/05 - 18:56   Céu Limpo 23° 57% 1017 Oeste/5 km/h OK
23/05 - 17:56   Não Disponível 24° 53% 1017 Oeste/5 km/h OK
23/05 - 16:56   Poucas nuvens esparsas 27° 44% 1016 Oeste-noroeste/10 km/h OK
23/05 - 15:56   Parcialmente Nublado 27° 44% 1016 Sudoeste/5 km/h OK
23/05 - 14:56   Parcialmente Nublado 26° 44% 1017 Sul/9 km/h OK
23/05 - 13:56   Parcialmente Nublado 26° 44% 1017 Sul/9 km/h OK
23/05 - 12:56   Poucas nuvens esparsas 26° 44% 1018 Oeste-sudoeste/3 km/h OK
23/05 - 11:56   Não Disponível 26° 50% 1019 Nordeste/9 km/h OK
23/05 - 10:56   Céu Limpo 22° 73% 1021 Sul/5 km/h OK
23/05 - 09:56   Céu Limpo 22° 73% 1021 Sul/5 km/h OK
23/05 - 08:56   Céu Limpo 18° 82% 1020 Sul-sudeste/3 km/h OK


Apolo11.com - Todos os direitos reservados - 2000 - 2019
Política de Privacidade   |     Termo de Uso e Licenciamento   |  -   Entre em Contato

"Política é a guerra sem sangue enquanto a guerra é a política com sangue" - Mao Tsé-Tung